createdAt,value
2018-05-14T00:00:01.071Z,5.20
2018-05-14T00:02:28.532Z,4.40
2018-05-14T00:04:56.004Z,5.10
2018-05-14T00:07:23.457Z,5.13
2018-05-14T00:09:50.952Z,5.43
2018-05-14T00:12:18.423Z,4.37
2018-05-14T00:14:45.900Z,4.35
2018-05-14T00:17:13.376Z,4.90
2018-05-14T00:19:40.843Z,4.40
2018-05-14T00:22:08.330Z,4.80
2018-05-14T00:24:35.785Z,4.33
2018-05-14T00:27:03.248Z,5.10
2018-05-14T00:29:30.728Z,5.20
2018-05-14T00:31:58.196Z,4.60
2018-05-14T00:34:26.117Z,5.07
2018-05-14T00:36:53.576Z,4.50
2018-05-14T00:39:21.042Z,5.30
2018-05-14T00:41:48.515Z,5.10
2018-05-14T00:44:15.977Z,5.20
2018-05-14T00:46:43.728Z,5.22
2018-05-14T00:49:11.191Z,6.00
2018-05-14T00:51:38.650Z,6.47
2018-05-14T00:54:06.124Z,5.40
2018-05-14T00:56:33.588Z,5.07
2018-05-14T00:59:01.067Z,6.40
2018-05-14T01:01:28.529Z,5.47
2018-05-14T01:03:56.009Z,5.37
2018-05-14T01:06:23.467Z,5.23
2018-05-14T01:08:50.965Z,5.40
2018-05-14T01:11:18.429Z,6.53
2018-05-14T01:13:45.883Z,5.67
2018-05-14T01:16:13.360Z,6.03
2018-05-14T01:18:40.821Z,6.45
2018-05-14T01:21:08.317Z,6.03
2018-05-14T01:23:35.771Z,6.93
2018-05-14T01:26:03.229Z,6.43
2018-05-14T01:28:30.700Z,6.07
2018-05-14T01:30:58.168Z,6.80
2018-05-14T01:33:25.657Z,7.00
2018-05-14T01:35:53.135Z,6.67
2018-05-14T01:38:20.591Z,6.30
2018-05-14T01:40:48.071Z,6.82
2018-05-14T01:43:15.522Z,7.57
2018-05-14T01:45:43.033Z,6.10
2018-05-14T01:48:10.487Z,6.65
2018-05-14T01:50:37.957Z,8.00
2018-05-14T01:53:05.440Z,7.50
2018-05-14T01:55:32.909Z,7.40
2018-05-14T01:58:00.389Z,7.77
2018-05-14T02:00:27.848Z,7.17
2018-05-14T02:02:55.312Z,7.70
2018-05-14T02:05:22.784Z,7.10
2018-05-14T02:07:50.533Z,7.83
2018-05-14T02:10:18.010Z,8.00
2018-05-14T02:12:45.469Z,7.50
2018-05-14T02:15:12.938Z,7.97
2018-05-14T02:17:40.416Z,7.60
2018-05-14T02:20:07.876Z,6.67
2018-05-14T02:22:35.355Z,7.50
2018-05-14T02:25:02.813Z,7.57
2018-05-14T02:27:30.271Z,7.33
2018-05-14T02:29:57.752Z,7.73
2018-05-14T02:32:25.216Z,7.67
2018-05-14T02:34:52.708Z,8.00
2018-05-14T02:37:20.165Z,7.47
2018-05-14T02:39:48.104Z,8.30
2018-05-14T02:42:15.587Z,8.87
2018-05-14T02:44:43.052Z,8.17
2018-05-14T02:47:10.538Z,9.13
2018-05-14T02:49:37.997Z,7.20
2018-05-14T02:52:05.458Z,9.00
2018-05-14T02:54:32.936Z,7.90
2018-05-14T02:57:00.392Z,9.90
2018-05-14T02:59:27.872Z,8.27
2018-05-14T03:01:55.329Z,8.13
2018-05-14T03:04:22.817Z,9.03
2018-05-14T03:06:50.278Z,7.85
2018-05-14T03:09:17.741Z,8.33
2018-05-14T03:11:45.221Z,8.40
2018-05-14T03:14:12.676Z,8.10
2018-05-14T03:16:40.164Z,7.03
2018-05-14T03:19:07.620Z,7.70
2018-05-14T03:21:35.084Z,8.63
2018-05-14T03:24:02.568Z,8.40
2018-05-14T03:26:30.241Z,7.63
2018-05-14T03:28:57.738Z,9.07
2018-05-14T03:31:25.383Z,7.93
2018-05-14T03:33:52.857Z,8.90
2018-05-14T03:36:20.336Z,8.07
2018-05-14T03:38:47.795Z,8.50
2018-05-14T03:41:15.273Z,7.83
2018-05-14T03:43:42.732Z,8.60
2018-05-14T03:46:10.204Z,8.50
2018-05-14T03:48:37.683Z,7.60
2018-05-14T03:51:05.148Z,8.30
2018-05-14T03:53:32.632Z,8.43
2018-05-14T03:56:00.097Z,7.70
2018-05-14T03:58:39.388Z,8.23
2018-05-14T04:01:15.619Z,8.10
2018-05-14T04:03:54.952Z,7.70
2018-05-14T04:06:37.241Z,7.93
2018-05-14T04:09:05.528Z,6.80
2018-05-14T04:11:32.987Z,7.93
2018-05-14T04:14:00.515Z,6.90
2018-05-14T04:16:28.907Z,8.60
2018-05-14T04:18:56.335Z,8.00
2018-05-14T04:21:23.818Z,7.83
2018-05-14T04:23:51.282Z,7.40
2018-05-14T04:26:18.775Z,8.98
2018-05-14T04:28:46.239Z,7.83
2018-05-14T04:31:13.693Z,7.43
2018-05-14T04:33:41.186Z,9.10
2018-05-14T04:36:08.649Z,7.40
2018-05-14T04:38:36.139Z,8.60
2018-05-14T04:41:04.110Z,7.30
2018-05-14T04:43:31.571Z,8.90
2018-05-14T04:45:59.046Z,7.60
2018-05-14T04:48:26.499Z,7.00
2018-05-14T04:50:53.979Z,13.35
2018-05-14T04:53:21.484Z,7.80
2018-05-14T04:55:48.976Z,7.97
2018-05-14T04:58:16.436Z,8.47
2018-05-14T05:00:43.895Z,7.97
2018-05-14T05:03:11.364Z,7.57
2018-05-14T05:05:38.824Z,8.30
2018-05-14T05:08:06.355Z,8.00
2018-05-14T05:10:33.825Z,9.03
2018-05-14T05:13:01.305Z,7.37
2018-05-14T05:15:28.769Z,8.50
2018-05-14T05:17:56.224Z,8.00
2018-05-14T05:20:23.721Z,8.40
2018-05-14T05:22:51.281Z,9.67
2018-05-14T05:25:18.689Z,8.87
2018-05-14T05:27:46.155Z,7.57
2018-05-14T05:30:13.621Z,8.30
2018-05-14T05:32:41.095Z,7.93
2018-05-14T05:35:08.551Z,8.80
2018-05-14T05:37:36.119Z,7.77
2018-05-14T05:40:03.525Z,8.45
2018-05-14T05:42:30.980Z,8.70
2018-05-14T05:44:58.464Z,8.07
2018-05-14T05:47:25.919Z,8.27
2018-05-14T05:49:53.404Z,8.85
2018-05-14T05:52:20.955Z,8.60
2018-05-14T05:54:48.392Z,9.90
2018-05-14T05:57:15.858Z,9.43
2018-05-14T05:59:43.323Z,9.77
2018-05-14T06:02:10.795Z,8.57
2018-05-14T06:04:38.252Z,9.30
2018-05-14T06:07:05.992Z,8.83
2018-05-14T06:09:33.538Z,8.93
2018-05-14T06:12:00.940Z,7.73
2018-05-14T06:14:28.429Z,9.03
2018-05-14T06:16:55.876Z,8.07
2018-05-14T06:19:23.348Z,8.50
2018-05-14T06:21:51.125Z,13.80
2018-05-14T06:24:18.599Z,8.10
2018-05-14T06:26:46.072Z,8.00
2018-05-14T06:29:13.550Z,7.97
2018-05-14T06:31:41.024Z,7.20
2018-05-14T06:34:08.481Z,7.40
2018-05-14T06:36:35.946Z,9.15
2018-05-14T06:39:03.413Z,7.87
2018-05-14T06:41:30.876Z,7.97
2018-05-14T06:43:58.487Z,7.63
2018-05-14T06:46:25.955Z,8.10
2018-05-14T06:48:53.422Z,8.03
2018-05-14T06:51:20.928Z,8.20
2018-05-14T06:53:48.392Z,8.33
2018-05-14T06:56:15.860Z,8.37
2018-05-14T06:58:43.485Z,9.53
2018-05-14T07:01:10.795Z,7.53
2018-05-14T07:03:38.268Z,7.68
2018-05-14T07:06:05.718Z,6.17
2018-05-14T07:08:33.184Z,7.37
2018-05-14T07:11:00.656Z,6.70
2018-05-14T07:13:28.140Z,8.05
2018-05-14T07:15:55.607Z,7.50
2018-05-14T07:18:23.764Z,5.40
2018-05-14T07:20:51.248Z,6.87
2018-05-14T07:23:18.708Z,6.40
2018-05-14T07:25:46.187Z,6.50
2018-05-14T07:28:13.653Z,6.40
2018-05-14T07:30:41.097Z,6.10
2018-05-14T07:33:08.575Z,6.73
2018-05-14T07:35:36.029Z,6.40
2018-05-14T07:38:03.501Z,5.00
2018-05-14T07:40:30.975Z,5.17
2018-05-14T07:42:58.456Z,6.17
2018-05-14T07:45:25.921Z,5.37
2018-05-14T07:47:53.379Z,5.70
2018-05-14T07:50:20.849Z,5.50
2018-05-14T07:52:48.314Z,6.40
2018-05-14T07:55:15.801Z,5.90
2018-05-14T07:57:43.266Z,6.03
2018-05-14T08:00:10.891Z,5.80
2018-05-14T08:02:38.225Z,6.07
2018-05-14T08:05:05.683Z,5.30
2018-05-14T08:07:33.159Z,6.70
2018-05-14T08:10:00.626Z,5.40
2018-05-14T08:12:28.087Z,5.47
2018-05-14T08:14:55.571Z,5.03
2018-05-14T08:17:23.032Z,6.13
2018-05-14T08:19:50.506Z,6.00
2018-05-14T08:22:17.979Z,6.13
2018-05-14T08:24:45.439Z,6.40
2018-05-14T08:27:12.909Z,5.63
2018-05-14T08:29:40.372Z,5.78
2018-05-14T08:32:07.995Z,6.60
2018-05-14T08:34:35.322Z,5.57
2018-05-14T08:37:02.871Z,5.90
2018-05-14T08:39:30.275Z,5.30
2018-05-14T08:41:57.732Z,6.27
2018-05-14T08:44:25.252Z,6.00
2018-05-14T08:46:52.684Z,6.25
2018-05-14T08:49:20.156Z,5.60
2018-05-14T08:51:47.618Z,5.35
2018-05-14T08:54:15.137Z,5.57
2018-05-14T08:56:42.590Z,5.10
2018-05-14T08:59:10.153Z,5.73
2018-05-14T09:01:37.655Z,5.03
2018-05-14T09:04:05.192Z,5.83
2018-05-14T09:06:32.648Z,6.10
2018-05-14T09:09:00.563Z,5.63
2018-05-14T09:11:28.627Z,6.07
2018-05-14T09:13:56.125Z,5.67
2018-05-14T09:16:23.861Z,6.30
2018-05-14T09:18:51.675Z,5.93
2018-05-14T09:21:19.769Z,4.80
2018-05-14T09:23:47.263Z,6.07
2018-05-14T09:26:14.736Z,6.30
2018-05-14T09:28:42.278Z,4.97
2018-05-14T09:31:10.337Z,5.30
2018-05-14T09:33:37.934Z,4.75
2018-05-14T09:36:05.724Z,5.23
2018-05-14T09:38:33.812Z,5.60
2018-05-14T09:41:01.599Z,5.10
2018-05-14T09:43:29.293Z,5.35
2018-05-14T09:45:56.998Z,4.60
2018-05-14T09:48:24.456Z,5.27
2018-05-14T09:50:51.936Z,4.40
2018-05-14T09:53:20.325Z,5.07
2018-05-14T09:55:48.036Z,5.10
2018-05-14T09:58:15.499Z,4.87
2018-05-14T10:00:42.975Z,4.40
2018-05-14T10:03:10.447Z,5.60
2018-05-14T10:05:38.024Z,5.10
2018-05-14T10:08:05.765Z,5.27
2018-05-14T10:10:33.531Z,4.77
2018-05-14T10:13:01.103Z,4.50
2018-05-14T10:15:28.544Z,4.60
2018-05-14T10:17:56.000Z,4.53
2018-05-14T10:20:24.934Z,4.17
2018-05-14T10:22:53.658Z,4.68
2018-05-14T10:25:21.379Z,4.30
2018-05-14T10:27:49.371Z,3.70
2018-05-14T10:30:17.422Z,4.47
2018-05-14T10:32:44.903Z,3.60
2018-05-14T10:35:12.360Z,3.93
2018-05-14T10:37:39.839Z,3.77
2018-05-14T10:40:07.291Z,3.50
2018-05-14T10:42:34.760Z,4.13
2018-05-14T10:45:02.253Z,5.12
2018-05-14T10:47:29.788Z,5.73
2018-05-14T10:49:57.791Z,5.50
2018-05-14T10:52:25.288Z,4.83
2018-05-14T10:54:53.076Z,6.87
2018-05-14T10:57:20.551Z,6.17
2018-05-14T10:59:48.013Z,5.37
2018-05-14T11:02:15.520Z,4.93
2018-05-14T11:04:42.979Z,4.37
2018-05-14T11:07:10.434Z,6.53
2018-05-14T11:09:37.908Z,5.50
2018-05-14T11:12:05.362Z,6.03
2018-05-14T11:14:32.843Z,5.00
2018-05-14T11:17:00.304Z,4.70
2018-05-14T11:19:27.769Z,6.00
2018-05-14T11:21:55.236Z,6.33
2018-05-14T11:24:22.694Z,3.83
2018-05-14T11:26:50.173Z,5.90
2018-05-14T11:29:17.639Z,5.17
2018-05-14T11:31:45.098Z,4.70
2018-05-14T11:34:12.575Z,4.07
2018-05-14T11:36:40.043Z,4.40
2018-05-14T11:39:07.526Z,4.60
2018-05-14T11:41:34.984Z,5.50
2018-05-14T11:44:02.469Z,4.22
2018-05-14T11:46:29.925Z,4.30
2018-05-14T11:48:57.388Z,3.47
2018-05-14T11:51:24.863Z,3.67
2018-05-14T11:53:52.317Z,3.67
2018-05-14T11:56:19.795Z,3.83
2018-05-14T11:58:47.257Z,3.87
2018-05-14T12:01:14.721Z,4.70
2018-05-14T12:03:42.195Z,4.20
2018-05-14T12:06:09.656Z,4.15
2018-05-14T12:08:37.137Z,3.30
2018-05-14T12:11:04.594Z,3.97
2018-05-14T12:13:32.050Z,3.30
2018-05-14T12:16:00.533Z,4.12
2018-05-14T12:18:27.942Z,4.20
2018-05-14T12:20:55.419Z,4.50
2018-05-14T12:23:22.867Z,3.90
2018-05-14T12:25:50.343Z,3.50
2018-05-14T12:28:17.807Z,3.15
2018-05-14T12:30:45.256Z,3.30
2018-05-14T12:33:12.733Z,3.17
2018-05-14T12:35:40.192Z,3.10
2018-05-14T12:38:07.675Z,3.07
2018-05-14T12:40:35.129Z,3.90
2018-05-14T12:43:02.871Z,3.93
2018-05-14T12:45:30.567Z,3.30
2018-05-14T12:47:58.029Z,3.60
2018-05-14T12:50:25.502Z,4.13
2018-05-14T12:52:52.969Z,4.73
2018-05-14T12:55:20.466Z,4.23
2018-05-14T12:57:47.937Z,4.30
2018-05-14T13:00:16.428Z,4.57
2018-05-14T13:02:44.907Z,3.77
2018-05-14T13:05:12.441Z,5.10
2018-05-14T13:07:39.920Z,4.43
2018-05-14T13:10:07.443Z,6.13
2018-05-14T13:12:35.002Z,4.40
2018-05-14T13:15:02.424Z,5.00
2018-05-14T13:17:29.891Z,4.10
2018-05-14T13:19:57.361Z,4.20
2018-05-14T13:22:25.223Z,3.35
2018-05-14T13:24:52.688Z,3.97
2018-05-14T13:27:20.172Z,4.72
2018-05-14T13:29:47.641Z,4.07
2018-05-14T13:32:15.143Z,3.35
2018-05-14T13:34:42.609Z,3.07
2018-05-14T13:37:10.068Z,5.53
2018-05-14T13:39:37.552Z,5.00
2018-05-14T13:42:05.018Z,4.37
2018-05-14T13:44:32.521Z,3.57
2018-05-14T13:47:00.049Z,2.63
2018-05-14T13:49:27.535Z,2.62
2018-05-14T13:51:55.120Z,3.10
2018-05-14T13:54:23.044Z,3.12
2018-05-14T13:56:50.515Z,3.03
2018-05-14T13:59:17.976Z,6.40
2018-05-14T14:01:45.907Z,6.43
2018-05-14T14:04:13.383Z,8.77
2018-05-14T14:06:40.852Z,5.83
2018-05-14T14:09:08.416Z,3.60
2018-05-14T14:11:35.880Z,3.65
2018-05-14T14:14:03.351Z,3.10
2018-05-14T14:16:31.133Z,3.17
2018-05-14T14:18:58.598Z,4.23
2018-05-14T14:21:26.099Z,2.95
2018-05-14T14:23:53.706Z,4.37
2018-05-14T14:26:21.052Z,3.20
2018-05-14T14:28:49.131Z,3.33
2018-05-14T14:31:16.586Z,2.67
2018-05-14T14:33:44.623Z,3.47
2018-05-14T14:36:12.695Z,3.77
2018-05-14T14:38:40.163Z,3.10
2018-05-14T14:41:07.677Z,3.33
2018-05-14T14:43:35.381Z,3.78
2018-05-14T14:46:02.839Z,3.93
2018-05-14T14:48:30.327Z,2.55
2018-05-14T14:50:57.786Z,2.90
2018-05-14T14:53:25.261Z,3.20
2018-05-14T14:55:52.725Z,4.70
2018-05-14T14:58:20.198Z,10.00
2018-05-14T15:00:47.688Z,4.37
2018-05-14T15:03:15.149Z,4.03
2018-05-14T15:05:42.628Z,2.63
2018-05-14T15:08:10.121Z,3.37
2018-05-14T15:10:37.588Z,3.27
2018-05-14T15:13:05.072Z,3.27
2018-05-14T15:15:32.535Z,3.85
2018-05-14T15:18:00.009Z,3.47
2018-05-14T15:20:27.467Z,2.57
2018-05-14T15:22:54.924Z,2.90
2018-05-14T15:25:22.404Z,2.60
2018-05-14T15:27:49.864Z,3.70
2018-05-14T15:30:17.395Z,9.40
2018-05-14T15:32:44.874Z,9.47
2018-05-14T15:35:12.342Z,8.23
2018-05-14T15:37:39.816Z,6.07
2018-05-14T15:40:07.337Z,4.07
2018-05-14T15:42:34.811Z,5.47
2018-05-14T15:45:02.277Z,4.73
2018-05-14T15:47:29.731Z,2.90
2018-05-14T15:49:57.282Z,3.00
2018-05-14T15:52:24.675Z,4.23
2018-05-14T15:54:52.153Z,3.60
2018-05-14T15:57:19.616Z,3.00
2018-05-14T15:59:47.084Z,4.55
2018-05-14T16:02:14.555Z,5.30
2018-05-14T16:04:42.019Z,5.03
2018-05-14T16:07:09.480Z,5.23
2018-05-14T16:09:36.997Z,5.47
2018-05-14T16:12:04.475Z,5.60
2018-05-14T16:14:32.413Z,4.60
2018-05-14T16:16:59.903Z,5.40
2018-05-14T16:19:27.615Z,6.00
2018-05-14T16:21:55.100Z,3.33
2018-05-14T16:24:22.677Z,3.13
2018-05-14T16:26:50.162Z,3.83
2018-05-14T16:29:17.617Z,3.60
2018-05-14T16:31:45.080Z,3.72
2018-05-14T16:34:12.576Z,3.53
2018-05-14T16:36:40.039Z,5.25
2018-05-14T16:39:07.601Z,4.17
2018-05-14T16:41:35.825Z,4.13
2018-05-14T16:44:03.862Z,4.33
2018-05-14T16:46:31.341Z,5.60
2018-05-14T16:48:58.951Z,3.40
2018-05-14T16:51:26.445Z,3.70
2018-05-14T16:53:53.952Z,3.72
2018-05-14T16:56:21.463Z,3.37
2018-05-14T16:58:49.127Z,3.72
2018-05-14T17:01:16.596Z,3.90
2018-05-14T17:03:44.104Z,3.65
2018-05-14T17:06:11.540Z,2.60
2018-05-14T17:08:39.034Z,4.70
2018-05-14T17:11:06.495Z,5.10
2018-05-14T17:13:33.963Z,4.83
2018-05-14T17:16:01.423Z,4.80
2018-05-14T17:18:28.896Z,4.57
2018-05-14T17:20:56.372Z,2.90
2018-05-14T17:23:24.100Z,3.17
2018-05-14T17:25:51.572Z,2.93
2018-05-14T17:28:19.031Z,2.97
2018-05-14T17:30:46.489Z,3.10
2018-05-14T17:33:14.204Z,4.70
2018-05-14T17:35:42.009Z,5.50
2018-05-14T17:38:09.715Z,2.97
2018-05-14T17:40:37.791Z,3.20
2018-05-14T17:43:05.435Z,3.50
2018-05-14T17:45:32.991Z,3.20
2018-05-14T17:48:00.460Z,3.07
2018-05-14T17:50:28.079Z,10.20
2018-05-14T17:52:55.904Z,3.58
2018-05-14T17:55:23.656Z,3.47
2018-05-14T17:57:51.225Z,3.50
2018-05-14T18:00:19.322Z,4.70
2018-05-14T18:02:47.155Z,4.27
2018-05-14T18:05:15.264Z,3.97
2018-05-14T18:07:42.924Z,4.22
2018-05-14T18:10:10.693Z,3.70
2018-05-14T18:12:38.158Z,4.43
2018-05-14T18:15:11.631Z,3.35
2018-05-14T18:17:39.475Z,3.27
2018-05-14T18:20:12.659Z,3.58
2018-05-14T18:22:40.547Z,3.10
2018-05-14T18:25:15.256Z,3.20
2018-05-14T18:27:48.289Z,3.13
2018-05-14T18:30:15.771Z,3.83
2018-05-14T18:32:48.755Z,2.93
2018-05-14T18:35:21.193Z,4.33
2018-05-14T18:37:48.694Z,4.70
2018-05-14T18:40:16.164Z,3.53
2018-05-14T18:42:43.638Z,3.60
2018-05-14T18:45:11.115Z,3.42
2018-05-14T18:47:38.597Z,3.40
2018-05-14T18:50:06.058Z,5.22
2018-05-14T18:52:33.540Z,4.70
2018-05-14T18:55:01.012Z,5.12
2018-05-14T18:57:28.681Z,4.73
2018-05-14T18:59:56.245Z,6.33
2018-05-14T19:02:23.726Z,5.80
2018-05-14T19:04:51.202Z,5.50
2018-05-14T19:07:18.676Z,4.80
2018-05-14T19:09:46.152Z,5.57
2018-05-14T19:12:13.671Z,8.00
2018-05-14T19:14:41.818Z,6.73
2018-05-14T19:17:14.859Z,5.40
2018-05-14T19:19:42.384Z,4.53
2018-05-14T19:22:17.006Z,5.20
2018-05-14T19:24:45.937Z,5.63
2018-05-14T19:27:14.930Z,5.87
2018-05-14T19:29:44.056Z,6.13
2018-05-14T19:32:11.625Z,5.40
2018-05-14T19:34:44.760Z,4.40
2018-05-14T19:37:12.220Z,5.28
2018-05-14T19:39:45.304Z,5.10
2018-05-14T19:42:12.802Z,4.75
2018-05-14T19:44:40.314Z,4.57
2018-05-14T19:47:07.867Z,4.30
2018-05-14T19:49:35.929Z,4.40
2018-05-14T19:52:03.867Z,4.90
2018-05-14T19:54:31.675Z,5.05
2018-05-14T19:56:59.324Z,5.60
2018-05-14T19:59:27.195Z,4.53
2018-05-14T20:01:55.733Z,4.50
2018-05-14T20:04:23.589Z,4.67
2018-05-14T20:06:51.755Z,6.50
2018-05-14T20:09:19.232Z,6.30
2018-05-14T20:11:47.203Z,4.80
2018-05-14T20:14:14.748Z,4.97
2018-05-14T20:16:42.236Z,4.90
2018-05-14T20:19:09.781Z,5.03
2018-05-14T20:21:37.729Z,6.23
2018-05-14T20:24:05.511Z,4.27
2018-05-14T20:26:33.224Z,4.20
2018-05-14T20:29:00.883Z,4.03
2018-05-14T20:31:29.028Z,4.07
2018-05-14T20:33:57.016Z,4.07
2018-05-14T20:36:24.755Z,5.40
2018-05-14T20:38:52.331Z,5.87
2018-05-14T20:41:19.801Z,5.53
2018-05-14T20:43:47.308Z,5.53
2018-05-14T20:46:14.770Z,5.73
2018-05-14T20:48:42.227Z,6.13
2018-05-14T20:51:09.686Z,5.60
2018-05-14T20:53:37.158Z,5.30
2018-05-14T20:56:04.640Z,5.57
2018-05-14T20:58:32.101Z,6.40
2018-05-14T21:00:59.574Z,6.20
2018-05-14T21:03:27.044Z,5.40
2018-05-14T21:05:54.498Z,5.57
2018-05-14T21:08:21.979Z,4.70
2018-05-14T21:10:49.431Z,4.70
2018-05-14T21:13:16.908Z,4.32
2018-05-14T21:15:44.368Z,4.97
2018-05-14T21:18:11.823Z,5.90
2018-05-14T21:20:39.328Z,5.63
2018-05-14T21:23:06.796Z,6.18
2018-05-14T21:25:34.291Z,6.83
2018-05-14T21:28:01.772Z,5.63
2018-05-14T21:30:29.313Z,4.70
2018-05-14T21:32:56.745Z,5.60
2018-05-14T21:35:24.199Z,5.93
2018-05-14T21:37:51.687Z,5.90
2018-05-14T21:40:19.150Z,4.60
2018-05-14T21:42:46.628Z,5.40
2018-05-14T21:45:14.978Z,4.90
2018-05-14T21:47:42.447Z,4.60
2018-05-14T21:50:09.920Z,5.60
2018-05-14T21:52:37.379Z,4.50
2018-05-14T21:55:04.855Z,4.67
2018-05-14T21:57:32.321Z,4.55
2018-05-14T21:59:59.777Z,4.90
2018-05-14T22:02:27.267Z,4.60
2018-05-14T22:04:54.732Z,4.57
2018-05-14T22:07:22.212Z,5.33
2018-05-14T22:09:49.681Z,5.73
2018-05-14T22:12:17.154Z,5.23
2018-05-14T22:14:44.612Z,5.10
2018-05-14T22:17:12.072Z,6.00
2018-05-14T22:19:39.548Z,4.70
2018-05-14T22:22:07.010Z,5.62
2018-05-14T22:24:34.485Z,4.23
2018-05-14T22:27:01.964Z,6.00
2018-05-14T22:29:29.428Z,4.70
2018-05-14T22:31:56.905Z,4.20
2018-05-14T22:34:24.360Z,4.07
2018-05-14T22:36:51.844Z,4.23
2018-05-14T22:39:19.301Z,3.63
2018-05-14T22:41:46.761Z,4.70
2018-05-14T22:44:14.234Z,4.90
2018-05-14T22:46:41.700Z,5.50
2018-05-14T22:49:09.188Z,5.17
2018-05-14T22:51:36.650Z,5.78
2018-05-14T22:54:04.111Z,5.00
2018-05-14T22:56:31.589Z,5.25
2018-05-14T22:58:59.264Z,5.70
2018-05-14T23:01:26.761Z,6.23
2018-05-14T23:03:54.220Z,5.50
2018-05-14T23:06:21.680Z,5.70
2018-05-14T23:08:49.164Z,5.70
2018-05-14T23:11:16.624Z,5.37
2018-05-14T23:13:44.101Z,6.00
2018-05-14T23:16:11.561Z,5.40
2018-05-14T23:18:39.025Z,5.43
2018-05-14T23:21:06.500Z,4.50
2018-05-14T23:23:33.960Z,5.03
2018-05-14T23:26:01.518Z,5.70
2018-05-14T23:28:28.984Z,5.80
2018-05-14T23:30:56.439Z,4.70
2018-05-14T23:33:23.916Z,5.73
2018-05-14T23:35:51.376Z,5.83
2018-05-14T23:38:18.871Z,5.65
2018-05-14T23:40:46.332Z,6.10
2018-05-14T23:43:13.791Z,5.93
2018-05-14T23:45:41.274Z,5.33
2018-05-14T23:48:08.731Z,5.22
2018-05-14T23:50:36.227Z,5.80
2018-05-14T23:53:03.695Z,6.77
2018-05-14T23:55:31.180Z,6.10
2018-05-14T23:57:58.660Z,5.47
